createdAt,value
2019-03-04T00:00:12.721Z,2.57
2019-03-04T00:02:40.827Z,1.77
2019-03-04T00:05:08.981Z,3.87
2019-03-04T00:07:37.144Z,4.37
2019-03-04T00:10:05.532Z,4.70
2019-03-04T00:12:33.731Z,3.87
2019-03-04T00:15:01.982Z,4.93
2019-03-04T00:17:30.200Z,3.17
2019-03-04T00:19:58.363Z,2.70
2019-03-04T00:22:26.474Z,2.67
2019-03-04T00:24:54.619Z,5.17
2019-03-04T00:27:22.739Z,3.47
2019-03-04T00:29:50.886Z,2.83
2019-03-04T00:32:19.014Z,3.77
2019-03-04T00:34:47.160Z,2.07
2019-03-04T00:37:15.385Z,4.27
2019-03-04T00:39:43.670Z,3.70
2019-03-04T00:42:11.876Z,4.20
2019-03-04T00:44:40.094Z,3.70
2019-03-04T00:47:08.286Z,2.00
2019-03-04T00:49:36.807Z,2.63
2019-03-04T00:52:04.921Z,3.83
2019-03-04T00:54:33.062Z,4.27
2019-03-04T00:57:01.187Z,3.27
2019-03-04T00:59:31.322Z,3.80
2019-03-04T01:01:59.176Z,3.67
2019-03-04T01:04:27.312Z,3.30
2019-03-04T01:06:55.851Z,4.60
2019-03-04T01:09:24.053Z,5.30
2019-03-04T01:11:52.282Z,5.40
2019-03-04T01:14:20.471Z,3.30
2019-03-04T01:16:48.635Z,4.03
2019-03-04T01:19:16.754Z,4.33
2019-03-04T01:21:44.894Z,4.13
2019-03-04T01:24:13.019Z,3.73
2019-03-04T01:26:43.164Z,6.30
2019-03-04T01:29:11.833Z,2.97
2019-03-04T01:31:40.002Z,5.13
2019-03-04T01:34:08.128Z,4.10
2019-03-04T01:36:36.349Z,3.20
2019-03-04T01:39:05.652Z,6.23
2019-03-04T01:41:33.871Z,4.70
2019-03-04T01:44:01.997Z,4.67
2019-03-04T01:46:30.141Z,4.67
2019-03-04T01:48:58.279Z,4.47
2019-03-04T01:51:26.442Z,4.27
2019-03-04T01:53:54.562Z,5.07
2019-03-04T01:56:22.792Z,5.60
2019-03-04T01:58:50.983Z,4.47
2019-03-04T02:01:19.131Z,5.30
2019-03-04T02:03:47.257Z,4.93
2019-03-04T02:06:15.487Z,3.60
2019-03-04T02:08:43.761Z,5.03
2019-03-04T02:11:11.881Z,4.90
2019-03-04T02:13:40.071Z,4.40
2019-03-04T02:16:08.254Z,4.80
2019-03-04T02:18:36.408Z,4.90
2019-03-04T02:21:04.663Z,5.93
2019-03-04T02:23:32.813Z,6.00
2019-03-04T02:26:05.317Z,6.00
2019-03-04T02:28:33.535Z,4.80
2019-03-04T02:31:01.809Z,4.07
2019-03-04T02:33:30.549Z,4.63
2019-03-04T02:35:58.741Z,5.30
2019-03-04T02:38:26.967Z,5.47
2019-03-04T02:40:55.118Z,7.60
2019-03-04T02:43:23.295Z,5.60
2019-03-04T02:45:51.423Z,4.17
2019-03-04T02:48:19.584Z,4.73
2019-03-04T02:50:47.785Z,6.73
2019-03-04T02:53:15.936Z,5.03
2019-03-04T02:55:44.120Z,5.67
2019-03-04T02:58:12.281Z,3.80
2019-03-04T03:00:40.647Z,4.53
2019-03-04T03:03:08.838Z,6.93
2019-03-04T03:05:36.989Z,3.87
2019-03-04T03:08:05.108Z,4.63
2019-03-04T03:10:33.312Z,4.13
2019-03-04T03:13:01.437Z,5.00
2019-03-04T03:15:29.662Z,5.23
2019-03-04T03:17:57.856Z,5.77
2019-03-04T03:20:26.004Z,5.27
2019-03-04T03:22:54.124Z,3.77
2019-03-04T03:25:22.300Z,5.13
2019-03-04T03:27:50.511Z,3.30
2019-03-04T03:30:19.515Z,3.37
2019-03-04T03:32:47.833Z,4.00
2019-03-04T03:35:16.053Z,4.73
2019-03-04T03:37:44.259Z,4.80
2019-03-04T03:40:14.125Z,4.10
2019-03-04T03:42:42.349Z,4.57
2019-03-04T03:45:10.853Z,5.33
2019-03-04T03:47:39.444Z,5.30
2019-03-04T03:50:09.040Z,4.17
2019-03-04T03:52:37.241Z,6.27
2019-03-04T03:55:07.143Z,3.10
2019-03-04T03:57:35.401Z,6.80
2019-03-04T04:00:05.062Z,2.80
2019-03-04T04:02:33.305Z,3.43
2019-03-04T04:05:01.512Z,2.87
2019-03-04T04:07:29.667Z,3.30
2019-03-04T04:09:57.862Z,2.87
2019-03-04T04:12:26.085Z,3.63
2019-03-04T04:14:54.289Z,5.43
2019-03-04T04:17:22.442Z,2.73
2019-03-04T04:19:52.948Z,4.10
2019-03-04T04:22:20.513Z,5.30
2019-03-04T04:24:48.642Z,4.20
2019-03-04T04:27:16.859Z,3.80
2019-03-04T04:29:44.991Z,5.87
2019-03-04T04:32:13.224Z,3.67
2019-03-04T04:34:41.402Z,3.90
2019-03-04T04:37:09.572Z,3.67
2019-03-04T04:39:37.794Z,3.80
2019-03-04T04:42:06.013Z,3.90
2019-03-04T04:44:34.135Z,2.53
2019-03-04T04:47:02.432Z,4.23
2019-03-04T04:49:30.640Z,5.30
2019-03-04T04:51:58.868Z,4.27
2019-03-04T04:54:27.063Z,4.80
2019-03-04T04:56:55.232Z,7.43
2019-03-04T04:59:23.443Z,3.50
2019-03-04T05:01:51.657Z,6.17
2019-03-04T05:04:19.839Z,4.33
2019-03-04T05:06:48.279Z,2.40
2019-03-04T05:09:16.445Z,3.53
2019-03-04T05:11:44.637Z,2.60
2019-03-04T05:14:12.790Z,4.40
2019-03-04T05:16:40.953Z,3.90
2019-03-04T05:19:09.155Z,3.90
2019-03-04T05:21:37.285Z,3.80
2019-03-04T05:24:05.498Z,3.10
2019-03-04T05:26:33.666Z,3.70
2019-03-04T05:29:01.854Z,2.83
2019-03-04T05:31:30.017Z,5.27
2019-03-04T05:33:58.199Z,6.03
2019-03-04T05:36:26.437Z,3.70
2019-03-04T05:38:54.636Z,4.33
2019-03-04T05:41:22.855Z,5.87
2019-03-04T05:43:51.052Z,3.03
2019-03-04T05:46:19.195Z,4.40
2019-03-04T05:48:47.334Z,3.53
2019-03-04T05:51:15.624Z,4.30
2019-03-04T05:53:43.751Z,8.87
2019-03-04T05:56:11.924Z,6.23
2019-03-04T05:58:40.165Z,6.17
2019-03-04T06:01:09.943Z,3.40
2019-03-04T06:03:38.122Z,4.77
2019-03-04T06:06:06.284Z,2.70
2019-03-04T06:08:34.483Z,3.97
2019-03-04T06:11:02.703Z,6.83
2019-03-04T06:13:30.856Z,3.53
2019-03-04T06:15:59.100Z,3.97
2019-03-04T06:18:27.287Z,6.43
2019-03-04T06:20:55.532Z,5.33
2019-03-04T06:23:23.734Z,3.33
2019-03-04T06:25:51.964Z,5.87
2019-03-04T06:28:20.198Z,2.07
2019-03-04T06:30:49.349Z,3.63
2019-03-04T06:33:17.599Z,3.40
2019-03-04T06:35:45.744Z,3.93
2019-03-04T06:38:13.884Z,2.70
2019-03-04T06:40:42.095Z,3.13
2019-03-04T06:43:10.307Z,4.07
2019-03-04T06:45:38.582Z,3.57
2019-03-04T06:48:06.718Z,3.30
2019-03-04T06:50:50.880Z,2.37
2019-03-04T06:53:23.576Z,3.47
2019-03-04T06:55:53.292Z,2.60
2019-03-04T06:58:21.482Z,4.60
2019-03-04T07:00:50.627Z,3.13
2019-03-04T07:03:19.758Z,4.30
2019-03-04T07:05:48.681Z,2.33
2019-03-04T07:08:21.363Z,2.93
2019-03-04T07:10:49.520Z,3.03
2019-03-04T07:13:17.659Z,3.67
2019-03-04T07:15:45.884Z,3.47
2019-03-04T07:18:14.039Z,2.97
2019-03-04T07:20:42.164Z,2.87
2019-03-04T07:23:10.387Z,2.23
2019-03-04T07:25:38.589Z,2.33
2019-03-04T07:28:06.840Z,1.97
2019-03-04T07:30:35.048Z,3.10
2019-03-04T07:33:03.206Z,1.70
2019-03-04T07:35:31.336Z,2.53
2019-03-04T07:38:10.088Z,3.07
2019-03-04T07:40:38.276Z,1.40
2019-03-04T07:43:06.503Z,2.80
2019-03-04T07:45:34.857Z,1.77
2019-03-04T07:48:03.119Z,2.40
2019-03-04T07:50:31.316Z,2.20
2019-03-04T07:52:59.543Z,2.10
2019-03-04T07:55:27.775Z,2.90
2019-03-04T07:57:55.947Z,2.33
2019-03-04T08:00:24.117Z,2.10
2019-03-04T08:02:52.352Z,1.80
2019-03-04T08:05:20.485Z,3.50
2019-03-04T08:07:50.176Z,5.00
2019-03-04T08:10:36.544Z,2.40
2019-03-04T08:13:06.327Z,2.40
2019-03-04T08:15:35.873Z,2.57
2019-03-04T08:18:04.446Z,3.03
2019-03-04T08:20:32.649Z,2.10
2019-03-04T08:23:00.842Z,3.67
2019-03-04T08:25:29.019Z,1.73
2019-03-04T08:27:57.174Z,1.47
2019-03-04T08:30:25.400Z,2.67
2019-03-04T08:32:53.624Z,1.33
2019-03-04T08:35:21.739Z,3.43
2019-03-04T08:37:49.969Z,1.83
2019-03-04T08:40:18.369Z,4.00
2019-03-04T08:42:46.502Z,2.37
2019-03-04T08:45:15.616Z,2.50
2019-03-04T08:47:43.809Z,4.20
2019-03-04T08:50:13.253Z,1.90
2019-03-04T08:52:41.523Z,2.53
2019-03-04T08:55:11.017Z,2.40
2019-03-04T08:57:39.252Z,2.20
2019-03-04T09:00:20.836Z,2.50
2019-03-04T09:02:49.112Z,3.43
2019-03-04T09:05:17.427Z,3.77
2019-03-04T09:07:45.639Z,2.43
2019-03-04T09:10:17.702Z,4.60
2019-03-04T09:12:45.827Z,5.00
2019-03-04T09:15:14.719Z,2.20
2019-03-04T09:17:42.840Z,3.13
2019-03-04T09:20:11.935Z,4.70
2019-03-04T09:22:40.060Z,3.40
2019-03-04T09:25:30.366Z,3.40
2019-03-04T09:27:56.321Z,2.37
2019-03-04T09:30:24.591Z,3.00
2019-03-04T09:32:52.776Z,3.53
2019-03-04T09:35:20.932Z,5.57
2019-03-04T09:37:49.175Z,6.30
2019-03-04T09:40:24.968Z,4.57
2019-03-04T09:42:53.098Z,2.73
2019-03-04T09:45:21.328Z,4.07
2019-03-04T09:47:49.520Z,5.60
2019-03-04T09:50:19.328Z,3.27
2019-03-04T09:52:47.503Z,3.03
2019-03-04T09:55:16.528Z,4.10
2019-03-04T09:57:44.839Z,2.73
2019-03-04T10:00:32.488Z,5.13
2019-03-04T10:03:02.151Z,4.80
2019-03-04T10:05:34.484Z,6.20
2019-03-04T10:08:04.184Z,5.57
2019-03-04T10:10:33.951Z,5.93
2019-03-04T10:13:18.859Z,2.93
2019-03-04T10:16:00.795Z,5.50
2019-03-04T10:18:42.231Z,4.80
2019-03-04T10:21:11.926Z,4.83
2019-03-04T10:23:47.631Z,5.83
2019-03-04T10:26:22.590Z,4.57
2019-03-04T10:28:51.607Z,2.83
2019-03-04T10:31:30.704Z,3.23
2019-03-04T10:34:00.440Z,4.07
2019-03-04T10:36:30.217Z,5.13
2019-03-04T10:39:17.716Z,3.27
2019-03-04T10:41:49.058Z,2.57
2019-03-04T10:44:24.441Z,4.33
2019-03-04T10:46:53.768Z,7.47
2019-03-04T10:49:22.059Z,4.23
2019-03-04T10:51:50.386Z,5.13
2019-03-04T10:54:18.570Z,7.77
2019-03-04T10:56:46.721Z,6.33
2019-03-04T10:59:14.919Z,3.30
2019-03-04T11:01:43.067Z,4.87
2019-03-04T11:04:11.266Z,5.33
2019-03-04T11:06:39.431Z,3.07
2019-03-04T11:09:08.407Z,5.93
2019-03-04T11:11:36.560Z,4.47
2019-03-04T11:14:04.963Z,5.03
2019-03-04T11:16:33.181Z,2.57
2019-03-04T11:19:01.384Z,5.27
2019-03-04T11:21:29.684Z,6.67
2019-03-04T11:23:57.872Z,6.60
2019-03-04T11:26:26.085Z,6.23
2019-03-04T11:28:54.232Z,5.30
2019-03-04T11:31:22.401Z,10.60
2019-03-04T11:33:50.593Z,8.33
2019-03-04T11:36:18.811Z,9.40
2019-03-04T11:38:48.473Z,5.77
2019-03-04T11:41:18.079Z,6.63
2019-03-04T11:43:46.202Z,6.13
2019-03-04T11:46:14.423Z,9.50
2019-03-04T11:48:42.552Z,8.07
2019-03-04T11:51:10.771Z,10.33
2019-03-04T11:53:38.895Z,6.50
2019-03-04T11:56:07.089Z,6.93
2019-03-04T11:58:35.343Z,7.27
2019-03-04T12:01:12.071Z,7.83
2019-03-04T12:03:40.215Z,8.13
2019-03-04T12:06:08.409Z,6.27
2019-03-04T12:08:36.636Z,5.57
2019-03-04T12:11:04.919Z,6.53
2019-03-04T12:13:33.147Z,6.37
2019-03-04T12:16:01.542Z,6.90
2019-03-04T12:18:29.690Z,5.97
2019-03-04T12:20:57.813Z,4.93
2019-03-04T12:23:26.022Z,4.40
2019-03-04T12:25:54.346Z,9.07
2019-03-04T12:28:22.943Z,10.47
2019-03-04T12:30:51.204Z,8.07
2019-03-04T12:33:19.408Z,9.33
2019-03-04T12:35:47.558Z,8.03
2019-03-04T12:38:15.778Z,6.50
2019-03-04T12:40:43.898Z,9.40
2019-03-04T12:43:12.084Z,7.27
2019-03-04T12:45:40.409Z,5.90
2019-03-04T12:48:08.605Z,7.43
2019-03-04T12:50:37.314Z,7.43
2019-03-04T12:53:05.699Z,6.47
2019-03-04T12:55:33.882Z,5.73
2019-03-04T12:58:02.055Z,5.83
2019-03-04T13:00:31.155Z,12.20
2019-03-04T13:02:59.512Z,4.33
2019-03-04T13:05:27.736Z,8.00
2019-03-04T13:07:56.031Z,8.23
2019-03-04T13:10:24.366Z,10.93
2019-03-04T13:12:52.601Z,8.83
2019-03-04T13:15:30.485Z,5.97
2019-03-04T13:17:58.693Z,6.87
2019-03-04T13:20:28.434Z,8.73
2019-03-04T13:22:56.651Z,8.63
2019-03-04T13:25:24.986Z,4.30
2019-03-04T13:27:53.291Z,8.57
2019-03-04T13:30:22.557Z,8.43
2019-03-04T13:32:50.724Z,4.03
2019-03-04T13:35:24.601Z,8.60
2019-03-04T13:37:50.486Z,8.83
2019-03-04T13:40:18.793Z,4.87
2019-03-04T13:42:46.975Z,7.33
2019-03-04T13:45:15.627Z,5.23
2019-03-04T13:47:43.767Z,3.90
2019-03-04T13:50:16.395Z,4.40
2019-03-04T13:52:44.543Z,3.63
2019-03-04T13:55:13.227Z,4.13
2019-03-04T13:57:41.375Z,5.23
2019-03-04T14:00:15.256Z,5.50
2019-03-04T14:02:43.567Z,3.30
2019-03-04T14:05:12.554Z,5.73
2019-03-04T14:07:40.702Z,2.67
2019-03-04T14:10:10.517Z,4.37
2019-03-04T14:12:38.740Z,3.20
2019-03-04T14:15:08.482Z,4.53
2019-03-04T14:17:36.698Z,3.17
2019-03-04T14:20:06.367Z,4.53
2019-03-04T14:22:40.261Z,4.37
2019-03-04T14:25:06.228Z,1.63
2019-03-04T14:27:34.462Z,2.00
2019-03-04T14:30:02.682Z,3.43
2019-03-04T14:32:30.903Z,1.63
2019-03-04T14:34:59.099Z,1.63
2019-03-04T14:37:27.310Z,2.57
2019-03-04T14:39:55.500Z,2.73
2019-03-04T14:42:23.664Z,1.33
2019-03-04T14:44:51.862Z,1.50
2019-03-04T14:47:20.101Z,1.13
2019-03-04T14:49:48.312Z,2.53
2019-03-04T14:52:16.551Z,2.97
2019-03-04T14:54:44.740Z,1.53
2019-03-04T14:57:13.755Z,0.73
2019-03-04T14:59:41.958Z,0.73
2019-03-04T15:02:10.183Z,2.70
2019-03-04T15:04:38.306Z,1.30
2019-03-04T15:07:06.552Z,0.67
2019-03-04T15:09:34.687Z,1.80
2019-03-04T15:12:02.943Z,1.07
2019-03-04T15:14:31.153Z,0.80
2019-03-04T15:17:03.287Z,0.90
2019-03-04T15:19:29.266Z,0.60
2019-03-04T15:21:57.501Z,0.50
2019-03-04T15:24:25.715Z,0.93
2019-03-04T15:26:54.003Z,0.50
2019-03-04T15:29:22.295Z,1.20
2019-03-04T15:31:50.448Z,0.80
2019-03-04T15:34:18.674Z,6.03
2019-03-04T15:36:46.913Z,0.93
2019-03-04T15:39:22.551Z,2.00
2019-03-04T15:41:45.483Z,1.20
2019-03-04T15:44:13.654Z,0.80
2019-03-04T15:46:41.811Z,1.97
2019-03-04T15:49:10.052Z,0.87
2019-03-04T15:51:38.177Z,0.60
2019-03-04T15:54:06.442Z,1.20
2019-03-04T15:56:35.541Z,0.60
2019-03-04T15:59:03.972Z,1.53
2019-03-04T16:01:32.119Z,1.07
2019-03-04T16:04:00.358Z,1.33
2019-03-04T16:06:28.498Z,1.73
2019-03-04T16:08:56.666Z,0.77
2019-03-04T16:11:25.083Z,1.93
2019-03-04T16:13:56.103Z,2.30
2019-03-04T16:16:23.164Z,1.93
2019-03-04T16:18:51.391Z,0.60
2019-03-04T16:21:19.517Z,1.37
2019-03-04T16:23:47.780Z,2.20
2019-03-04T16:26:15.904Z,2.77
2019-03-04T16:28:44.215Z,2.70
2019-03-04T16:31:12.492Z,2.10
2019-03-04T16:33:40.662Z,0.97
2019-03-04T16:36:08.875Z,3.57
2019-03-04T16:38:37.025Z,2.30
2019-03-04T16:41:05.162Z,1.43
2019-03-04T16:43:33.460Z,1.40
2019-03-04T16:46:01.585Z,1.40
2019-03-04T16:48:29.847Z,4.80
2019-03-04T16:50:57.981Z,1.00
2019-03-04T16:53:27.775Z,1.20
2019-03-04T16:55:55.935Z,2.13
2019-03-04T16:58:24.178Z,2.20
2019-03-04T17:00:52.452Z,3.83
2019-03-04T17:03:20.704Z,2.63
2019-03-04T17:05:48.972Z,2.20
2019-03-04T17:08:17.196Z,2.30
2019-03-04T17:10:45.339Z,2.77
2019-03-04T17:13:13.636Z,2.73
2019-03-04T17:15:41.824Z,4.37
2019-03-04T17:18:09.971Z,2.90
2019-03-04T17:20:38.191Z,2.33
2019-03-04T17:23:06.394Z,4.67
2019-03-04T17:25:34.566Z,3.20
2019-03-04T17:28:02.770Z,2.83
2019-03-04T17:30:31.085Z,2.97
2019-03-04T17:32:59.396Z,4.20
2019-03-04T17:35:27.648Z,2.87
2019-03-04T17:37:55.851Z,4.90
2019-03-04T17:40:24.704Z,3.23
2019-03-04T17:42:52.908Z,3.50
2019-03-04T17:45:21.665Z,3.40
2019-03-04T17:47:50.233Z,4.87
2019-03-04T17:50:19.947Z,4.87
2019-03-04T17:52:48.116Z,3.83
2019-03-04T17:55:16.324Z,4.57
2019-03-04T17:57:44.457Z,3.30
2019-03-04T18:00:14.328Z,4.33
2019-03-04T18:02:42.466Z,6.53
2019-03-04T18:05:11.190Z,2.27
2019-03-04T18:07:39.360Z,2.13
2019-03-04T18:10:11.771Z,2.93
2019-03-04T18:12:39.955Z,2.23
2019-03-04T18:15:09.695Z,4.67
2019-03-04T18:17:37.836Z,3.37
2019-03-04T18:20:07.575Z,2.47
2019-03-04T18:22:35.707Z,2.03
2019-03-04T18:25:05.498Z,2.77
2019-03-04T18:27:33.900Z,2.20
2019-03-04T18:30:20.544Z,2.33
2019-03-04T18:32:53.204Z,1.73
2019-03-04T18:35:28.706Z,3.63
2019-03-04T18:38:04.275Z,4.00
2019-03-04T18:40:52.150Z,3.60
2019-03-04T18:43:21.812Z,2.60
2019-03-04T18:46:00.634Z,1.40
2019-03-04T18:48:39.479Z,4.27
2019-03-04T18:51:07.714Z,1.50
2019-03-04T18:53:35.838Z,2.27
2019-03-04T18:56:04.096Z,3.60
2019-03-04T18:58:32.281Z,2.80
2019-03-04T19:01:00.608Z,3.83
2019-03-04T19:03:28.742Z,2.07
2019-03-04T19:05:59.564Z,2.47
2019-03-04T19:08:27.664Z,3.30
2019-03-04T19:10:55.838Z,2.67
2019-03-04T19:13:24.042Z,2.83
2019-03-04T19:15:52.218Z,4.80
2019-03-04T19:18:20.756Z,2.77
2019-03-04T19:20:49.089Z,2.00
2019-03-04T19:23:17.347Z,3.50
2019-03-04T19:25:45.563Z,2.13
2019-03-04T19:28:13.782Z,3.13
2019-03-04T19:30:42.561Z,2.33
2019-03-04T19:33:10.770Z,3.87
2019-03-04T19:35:39.165Z,4.77
2019-03-04T19:38:07.356Z,2.47
2019-03-04T19:40:35.600Z,2.47
2019-03-04T19:43:03.918Z,4.07
2019-03-04T19:45:32.146Z,2.97
2019-03-04T19:48:00.464Z,2.50
2019-03-04T19:50:28.700Z,3.43
2019-03-04T19:52:56.827Z,3.27
2019-03-04T19:55:25.223Z,3.37
2019-03-04T19:57:53.412Z,3.17
2019-03-04T20:00:24.867Z,3.37
2019-03-04T20:02:53.397Z,3.20
2019-03-04T20:05:23.045Z,3.70
2019-03-04T20:07:51.293Z,3.00
2019-03-04T20:10:19.524Z,3.57
2019-03-04T20:12:47.831Z,4.97
2019-03-04T20:15:17.551Z,3.47
2019-03-04T20:17:45.985Z,3.63
2019-03-04T20:20:14.189Z,3.73
2019-03-04T20:22:42.535Z,4.90
2019-03-04T20:25:12.463Z,3.27
2019-03-04T20:27:41.287Z,4.30
2019-03-04T20:30:11.104Z,3.40
2019-03-04T20:32:39.608Z,3.27
2019-03-04T20:35:09.301Z,7.37
2019-03-04T20:37:38.211Z,5.57
2019-03-04T20:40:08.017Z,3.53
2019-03-04T20:42:36.259Z,2.60
2019-03-04T20:45:06.068Z,2.20
2019-03-04T20:47:34.310Z,3.53
2019-03-04T20:50:02.506Z,2.70
2019-03-04T20:52:30.844Z,2.77
2019-03-04T20:54:59.007Z,5.03
2019-03-04T20:57:27.154Z,2.90
2019-03-04T20:59:55.341Z,2.07
2019-03-04T21:02:23.558Z,3.00
2019-03-04T21:04:51.808Z,3.13
2019-03-04T21:07:20.049Z,2.20
2019-03-04T21:09:48.537Z,1.93
2019-03-04T21:12:18.390Z,1.90
2019-03-04T21:14:46.678Z,2.33
2019-03-04T21:17:14.842Z,1.93
2019-03-04T21:19:43.048Z,2.00
2019-03-04T21:22:11.389Z,1.93
2019-03-04T21:24:39.512Z,2.00
2019-03-04T21:27:07.755Z,2.10
2019-03-04T21:29:37.648Z,2.53
2019-03-04T21:32:07.385Z,2.10
2019-03-04T21:34:37.102Z,2.13
2019-03-04T21:37:12.802Z,2.97
2019-03-04T21:39:45.359Z,2.50
2019-03-04T21:42:24.663Z,1.80
2019-03-04T21:44:57.178Z,2.37
2019-03-04T21:47:30.447Z,2.77
2019-03-04T21:49:59.013Z,3.00
2019-03-04T21:52:29.042Z,2.43
2019-03-04T21:54:58.068Z,2.10
2019-03-04T21:57:30.571Z,2.20
2019-03-04T21:59:59.312Z,4.50
2019-03-04T22:02:37.958Z,3.17
2019-03-04T22:05:10.367Z,2.00
2019-03-04T22:07:38.592Z,2.27
2019-03-04T22:10:08.346Z,0.90
2019-03-04T22:12:36.557Z,2.87
2019-03-04T22:15:05.885Z,3.40
2019-03-04T22:17:34.098Z,3.70
2019-03-04T22:20:02.376Z,3.83
2019-03-04T22:22:30.618Z,4.70
2019-03-04T22:24:58.780Z,4.67
2019-03-04T22:27:26.978Z,3.50
2019-03-04T22:29:55.134Z,3.67
2019-03-04T22:32:23.343Z,4.27
2019-03-04T22:34:51.554Z,5.60
2019-03-04T22:37:19.778Z,3.13
2019-03-04T22:39:47.978Z,7.97
2019-03-04T22:42:16.127Z,4.90
2019-03-04T22:44:44.333Z,3.33
2019-03-04T22:47:12.477Z,3.57
2019-03-04T22:49:40.752Z,3.77
2019-03-04T22:52:08.908Z,3.27
2019-03-04T22:54:37.126Z,1.63
2019-03-04T22:57:05.383Z,3.43
2019-03-04T22:59:33.631Z,3.60
2019-03-04T23:02:01.857Z,2.00
2019-03-04T23:04:30.118Z,4.13
2019-03-04T23:06:59.789Z,3.47
2019-03-04T23:09:29.486Z,3.73
2019-03-04T23:12:11.196Z,1.50
2019-03-04T23:14:39.362Z,1.67
2019-03-04T23:17:07.561Z,4.07
2019-03-04T23:19:35.801Z,3.30
2019-03-04T23:22:03.991Z,3.20
2019-03-04T23:24:32.222Z,1.90
2019-03-04T23:27:00.443Z,5.13
2019-03-04T23:29:28.698Z,3.97
2019-03-04T23:31:56.935Z,3.33
2019-03-04T23:34:25.059Z,3.80
2019-03-04T23:36:53.215Z,4.20
2019-03-04T23:39:21.415Z,6.47
2019-03-04T23:41:49.635Z,5.00
2019-03-04T23:44:17.761Z,4.27
2019-03-04T23:46:45.913Z,2.63
2019-03-04T23:49:14.104Z,3.63
2019-03-04T23:51:42.262Z,1.90
2019-03-04T23:54:10.446Z,4.40
2019-03-04T23:56:38.594Z,5.40
2019-03-04T23:59:06.722Z,1.13
